createdAt,value
2018-02-24T00:01:26.673Z,98482.75
2018-02-24T00:03:55.700Z,98486.69
2018-02-24T00:06:23.950Z,98486.41
2018-02-24T00:08:52.972Z,98489.27
2018-02-24T00:11:21.227Z,98486.33
2018-02-24T00:13:49.483Z,98490.33
2018-02-24T00:16:18.512Z,98486.00
2018-02-24T00:18:46.761Z,98487.70
2018-02-24T00:21:15.786Z,98495.48
2018-02-24T00:23:44.063Z,98488.30
2018-02-24T00:26:12.317Z,98491.55
2018-02-24T00:28:40.571Z,98493.97
2018-02-24T00:31:09.603Z,98491.84
2018-02-24T00:33:37.856Z,98482.71
2018-02-24T00:36:06.113Z,98486.84
2018-02-24T00:38:35.132Z,98493.28
2018-02-24T00:41:03.381Z,98480.30
2018-02-24T00:43:32.407Z,98492.81
2018-02-24T00:46:00.661Z,98481.97
2018-02-24T00:48:29.680Z,98486.20
2018-02-24T00:50:57.937Z,98484.61
2018-02-24T00:53:26.194Z,98492.89
2018-02-24T00:55:55.230Z,98495.80
2018-02-24T00:58:23.482Z,98496.81
2018-02-24T01:00:51.745Z,98491.83
2018-02-24T01:03:20.754Z,98495.48
2018-02-24T01:05:49.010Z,98495.36
2018-02-24T01:08:18.025Z,98498.28
2018-02-24T01:10:46.292Z,98496.21
2018-02-24T01:13:15.305Z,98486.94
2018-02-24T01:15:43.549Z,98490.34
2018-02-24T01:18:12.574Z,98485.63
2018-02-24T01:20:40.827Z,98489.02
2018-02-24T01:23:09.851Z,98491.31
2018-02-24T01:25:38.101Z,98495.14
2018-02-24T01:28:06.362Z,98496.45
2018-02-24T01:30:35.378Z,98500.77
2018-02-24T01:33:03.638Z,98497.25
2018-02-24T01:35:32.655Z,98504.53
2018-02-24T01:38:00.910Z,98499.56
2018-02-24T01:40:29.936Z,98503.48
2018-02-24T01:42:58.194Z,98505.19
2018-02-24T01:45:26.455Z,98504.98
2018-02-24T01:47:55.491Z,98506.55
2018-02-24T01:50:23.738Z,98513.72
2018-02-24T01:52:51.986Z,98514.17
2018-02-24T01:55:21.002Z,98514.52
2018-02-24T01:57:49.249Z,98512.34
2018-02-24T02:00:18.271Z,98516.14
2018-02-24T02:02:46.519Z,98517.80
2018-02-24T02:05:15.554Z,98514.28
2018-02-24T02:07:43.802Z,98518.30
2018-02-24T02:10:12.836Z,98512.70
2018-02-24T02:12:41.092Z,98508.42
2018-02-24T02:15:09.354Z,98505.65
2018-02-24T02:17:37.607Z,98508.16
2018-02-24T02:20:06.638Z,98510.41
2018-02-24T02:22:34.883Z,98511.86
2018-02-24T02:25:03.916Z,98502.00
2018-02-24T02:27:32.166Z,98504.30
2018-02-24T02:30:00.434Z,98503.66
2018-02-24T02:32:29.454Z,98505.31
2018-02-24T02:34:57.699Z,98508.09
2018-02-24T02:37:26.724Z,98510.20
2018-02-24T02:39:54.982Z,98505.20
2018-02-24T02:42:23.252Z,98514.64
2018-02-24T02:44:52.267Z,98515.48
2018-02-24T02:47:20.528Z,98514.92
2018-02-24T02:49:48.779Z,98512.72
2018-02-24T02:52:17.803Z,98518.29
2018-02-24T02:54:46.049Z,98513.23
2018-02-24T02:57:15.083Z,98507.57
2018-02-24T02:59:43.331Z,98515.01
2018-02-24T03:02:12.359Z,98507.23
2018-02-24T03:04:40.601Z,98513.73
2018-02-24T03:07:08.875Z,98512.81
2018-02-24T03:09:37.894Z,98516.25
2018-02-24T03:12:06.146Z,98523.38
2018-02-24T03:14:35.166Z,98532.95
2018-02-24T03:17:03.420Z,98529.89
2018-02-24T03:19:31.683Z,98532.39
2018-02-24T03:22:00.693Z,98531.83
2018-02-24T03:24:28.962Z,98541.40
2018-02-24T03:26:57.215Z,98539.70
2018-02-24T03:29:26.238Z,98531.83
2018-02-24T03:31:54.485Z,98539.52
2018-02-24T03:34:23.513Z,98535.73
2018-02-24T03:36:51.758Z,98535.36
2018-02-24T03:39:20.778Z,98536.63
2018-02-24T03:41:49.043Z,98536.84
2018-02-24T03:44:18.059Z,98536.92
2018-02-24T03:46:46.311Z,98536.19
2018-02-24T03:49:15.338Z,98546.09
2018-02-24T03:51:43.587Z,98546.02
2018-02-24T03:54:11.863Z,98544.70
2018-02-24T03:56:40.115Z,98545.13
2018-02-24T03:59:09.130Z,98542.06
2018-02-24T04:01:37.386Z,98540.19
2018-02-24T04:04:06.412Z,98539.89
2018-02-24T04:06:34.661Z,98541.55
2018-02-24T04:09:03.691Z,98539.89
2018-02-24T04:11:31.947Z,98537.90
2018-02-24T04:14:00.193Z,98534.52
2018-02-24T04:16:29.258Z,98534.87
2018-02-24T04:18:57.466Z,98534.87
2018-02-24T04:21:26.488Z,98541.23
2018-02-24T04:23:54.734Z,98535.79
2018-02-24T04:26:23.770Z,98539.12
2018-02-24T04:28:52.018Z,98538.09
2018-02-24T04:31:21.050Z,98546.59
2018-02-24T04:33:49.294Z,98548.33
2018-02-24T04:36:17.549Z,98555.18
2018-02-24T04:38:46.565Z,98550.12
2018-02-24T04:41:14.833Z,98562.91
2018-02-24T04:43:43.091Z,98553.48
2018-02-24T04:46:12.102Z,98556.55
2018-02-24T04:48:40.359Z,98558.13
2018-02-24T04:51:09.375Z,98559.91
2018-02-24T04:53:37.634Z,98570.04
2018-02-24T04:56:06.648Z,98565.79
2018-02-24T04:58:34.910Z,98562.46
2018-02-24T05:01:03.931Z,98564.81
2018-02-24T05:03:32.186Z,98564.34
2018-02-24T05:06:00.432Z,98568.34
2018-02-24T05:08:28.698Z,98578.56
2018-02-24T05:10:56.944Z,98580.51
2018-02-24T05:13:25.205Z,98587.08
2018-02-24T05:15:53.454Z,98592.04
2018-02-24T05:18:22.478Z,98594.91
2018-02-24T05:20:50.730Z,98601.95
2018-02-24T05:23:18.996Z,98597.59
2018-02-24T05:25:48.007Z,98602.53
2018-02-24T05:28:16.278Z,98596.52
2018-02-24T05:30:44.526Z,98605.63
2018-02-24T05:33:13.543Z,98609.36
2018-02-24T05:35:41.806Z,98615.66
2018-02-24T05:38:10.823Z,98609.34
2018-02-24T05:40:39.082Z,98611.53
2018-02-24T05:43:08.103Z,98612.81
2018-02-24T05:45:36.358Z,98617.12
2018-02-24T05:48:04.609Z,98619.55
2018-02-24T05:50:32.860Z,98616.78
2018-02-24T05:53:01.115Z,98616.77
2018-02-24T05:55:29.386Z,98613.29
2018-02-24T05:57:57.633Z,98623.05
2018-02-24T06:00:25.900Z,98624.05
2018-02-24T06:02:54.929Z,98627.34
2018-02-24T06:05:23.186Z,98626.63
2018-02-24T06:07:51.427Z,98629.63
2018-02-24T06:10:19.686Z,98636.17
2018-02-24T06:12:47.931Z,98645.11
2018-02-24T06:15:16.208Z,98645.72
2018-02-24T06:17:44.454Z,98642.24
2018-02-24T06:20:12.714Z,98650.39
2018-02-24T06:22:41.740Z,98656.58
2018-02-24T06:25:09.987Z,98643.03
2018-02-24T06:27:39.022Z,98652.70
2018-02-24T06:30:07.279Z,98651.35
2018-02-24T06:32:35.542Z,98652.66
2018-02-24T06:35:03.791Z,98657.38
2018-02-24T06:37:32.054Z,98655.39
2018-02-24T06:40:00.305Z,98666.23
2018-02-24T06:42:28.564Z,98662.55
2018-02-24T06:44:56.815Z,98669.63
2018-02-24T06:47:25.846Z,98677.36
2018-02-24T06:49:54.100Z,98681.16
2018-02-24T06:52:22.361Z,98684.45
2018-02-24T06:54:51.376Z,98684.92
2018-02-24T06:57:19.637Z,98687.39
2018-02-24T06:59:47.896Z,98683.66
2018-02-24T07:02:16.938Z,98691.20
2018-02-24T07:04:45.189Z,98677.53
2018-02-24T07:07:13.448Z,98684.65
2018-02-24T07:09:42.458Z,98691.30
2018-02-24T07:12:10.712Z,98693.38
2018-02-24T07:14:39.732Z,98697.22
2018-02-24T07:17:07.996Z,98697.28
2018-02-24T07:19:36.262Z,98694.12
2018-02-24T07:22:05.288Z,98694.56
2018-02-24T07:24:33.541Z,98691.89
2018-02-24T07:27:01.814Z,98694.49
2018-02-24T07:29:30.077Z,98690.33
2018-02-24T07:31:59.098Z,98694.66
2018-02-24T07:34:27.354Z,98692.03
2018-02-24T07:36:56.381Z,98698.63
2018-02-24T07:39:24.625Z,98703.44
2018-02-24T07:41:52.886Z,98696.80
2018-02-24T07:44:21.904Z,98701.52
2018-02-24T07:46:50.167Z,98704.58
2018-02-24T07:49:19.180Z,98705.22
2018-02-24T07:51:47.442Z,98703.00
2018-02-24T07:54:15.687Z,98711.76
2018-02-24T07:56:43.942Z,98696.75
2018-02-24T07:59:12.199Z,98703.03
2018-02-24T08:01:40.460Z,98706.05
2018-02-24T08:04:08.711Z,98703.05
2018-02-24T08:06:37.725Z,98707.06
2018-02-24T08:09:05.978Z,98709.32
2018-02-24T08:11:35.008Z,98700.20
2018-02-24T08:14:03.254Z,98707.40
2018-02-24T08:16:31.510Z,98709.13
2018-02-24T08:19:00.534Z,98705.47
2018-02-24T08:21:28.781Z,98702.54
2018-02-24T08:23:57.806Z,98705.58
2018-02-24T08:26:26.058Z,98702.77
2018-02-24T08:28:55.089Z,98703.55
2018-02-24T08:31:23.341Z,98718.44
2018-02-24T08:33:51.607Z,98709.73
2018-02-24T08:36:20.665Z,98720.95
2018-02-24T08:38:48.943Z,98716.74
2018-02-24T08:41:17.191Z,98717.09
2018-02-24T08:43:45.452Z,98713.87
2018-02-24T08:46:13.707Z,98719.91
2018-02-24T08:48:41.961Z,98716.20
2018-02-24T08:51:10.228Z,98717.25
2018-02-24T08:53:38.470Z,98712.17
2018-02-24T08:56:06.735Z,98713.06
2018-02-24T08:58:34.981Z,98709.05
2018-02-24T09:01:03.243Z,98714.27
2018-02-24T09:03:32.257Z,98713.19
2018-02-24T09:06:00.527Z,98713.21
2018-02-24T09:08:29.539Z,98709.86
2018-02-24T09:10:57.795Z,98709.25
2018-02-24T09:13:26.803Z,98698.91
2018-02-24T09:15:55.058Z,98695.50
2018-02-24T09:18:24.075Z,98690.31
2018-02-24T09:20:52.348Z,98702.78
2018-02-24T09:23:20.590Z,98685.94
2018-02-24T09:25:49.636Z,98689.45
2018-02-24T09:28:17.888Z,98690.34
2018-02-24T09:30:46.159Z,98698.61
2018-02-24T09:33:15.160Z,98694.09
2018-02-24T09:35:43.411Z,98701.21
2018-02-24T09:38:12.439Z,98700.09
2018-02-24T09:40:40.701Z,98698.69
2018-02-24T09:43:08.953Z,98692.50
2018-02-24T09:45:37.984Z,98701.23
2018-02-24T09:48:06.238Z,98698.88
2018-02-24T09:50:34.491Z,98693.19
2018-02-24T09:53:03.519Z,98702.91
2018-02-24T09:55:31.772Z,98693.76
2018-02-24T09:58:00.798Z,98696.52
2018-02-24T10:00:29.050Z,98690.30
2018-02-24T10:02:57.321Z,98696.59
2018-02-24T10:05:25.573Z,98688.45
2018-02-24T10:07:53.842Z,98695.98
2018-02-24T10:10:22.097Z,98694.53
2018-02-24T10:12:50.349Z,98692.13
2018-02-24T10:15:18.623Z,98694.28
2018-02-24T10:17:46.858Z,98703.89
2018-02-24T10:20:15.892Z,98701.88
2018-02-24T10:22:44.142Z,98686.55
2018-02-24T10:25:12.417Z,98693.08
2018-02-24T10:27:40.668Z,98693.00
2018-02-24T10:30:08.926Z,98695.88
2018-02-24T10:32:37.185Z,98696.99
2018-02-24T10:35:06.209Z,98691.59
2018-02-24T10:37:34.473Z,98690.95
2018-02-24T10:40:02.727Z,98689.30
2018-02-24T10:42:30.990Z,98682.53
2018-02-24T10:44:59.270Z,98698.15
2018-02-24T10:47:27.525Z,98697.56
2018-02-24T10:49:55.794Z,98690.69
2018-02-24T10:52:24.049Z,98672.84
2018-02-24T10:54:53.074Z,98661.46
2018-02-24T10:57:21.338Z,98673.04
2018-02-24T10:59:49.586Z,98686.33
2018-02-24T11:02:18.609Z,98675.73
2018-02-24T11:04:46.861Z,98673.36
2018-02-24T11:07:15.892Z,98683.72
2018-02-24T11:09:44.141Z,98673.55
2018-02-24T11:12:12.408Z,98659.96
2018-02-24T11:14:41.443Z,98641.00
2018-02-24T11:17:09.697Z,98650.03
2018-02-24T11:19:37.951Z,98640.22
2018-02-24T11:22:06.975Z,98645.69
2018-02-24T11:24:35.218Z,98642.05
2018-02-24T11:27:04.246Z,98618.42
2018-02-24T11:29:32.484Z,98632.98
2018-02-24T11:32:00.739Z,98641.86
2018-02-24T11:34:29.060Z,98622.30
2018-02-24T11:36:57.244Z,98627.86
2018-02-24T11:39:30.914Z,98634.66
2018-02-24T11:41:59.939Z,98634.80
2018-02-24T11:44:28.182Z,98622.08
2018-02-24T11:46:56.427Z,98625.41
2018-02-24T11:49:24.666Z,98620.64
2018-02-24T11:51:52.988Z,98630.91
2018-02-24T11:54:21.234Z,98628.00
2018-02-24T11:56:49.484Z,98618.75
2018-02-24T11:59:17.727Z,98616.19
2018-02-24T12:01:45.979Z,98627.75
2018-02-24T12:04:14.222Z,98615.33
2018-02-24T12:06:42.467Z,98615.28
2018-02-24T12:09:11.468Z,98612.13
2018-02-24T12:11:40.486Z,98612.81
2018-02-24T12:14:08.726Z,98620.40
2018-02-24T12:16:37.734Z,98604.27
2018-02-24T12:19:05.986Z,98591.27
2018-02-24T12:21:34.238Z,98590.72
2018-02-24T12:24:02.483Z,98606.27
2018-02-24T12:26:30.733Z,98600.05
2018-02-24T12:28:59.747Z,98602.79
2018-02-24T12:31:28.003Z,98598.45
2018-02-24T12:33:57.009Z,98596.08
2018-02-24T12:36:25.258Z,98590.47
2018-02-24T12:38:54.261Z,98593.47
2018-02-24T12:41:22.515Z,98591.87
2018-02-24T12:43:50.768Z,98600.58
2018-02-24T12:46:19.022Z,98600.71
2018-02-24T12:48:47.262Z,98591.72
2018-02-24T12:51:16.275Z,98596.22
2018-02-24T12:53:44.521Z,98595.30
2018-02-24T12:56:13.538Z,98592.02
2018-02-24T12:58:41.769Z,98586.83
2018-02-24T13:01:10.942Z,98587.41
2018-02-24T13:03:39.951Z,98583.16
2018-02-24T13:06:08.203Z,98581.14
2018-02-24T13:08:36.441Z,98565.91
2018-02-24T13:11:04.695Z,98569.53
2018-02-24T13:13:32.947Z,98583.20
2018-02-24T13:16:01.183Z,98578.06
2018-02-24T13:18:29.439Z,98584.88
2018-02-24T13:20:58.451Z,98580.13
2018-02-24T13:23:26.691Z,98583.98
2018-02-24T13:25:54.926Z,98585.36
2018-02-24T13:28:23.169Z,98588.12
2018-02-24T13:30:51.416Z,98574.66
2018-02-24T13:33:19.668Z,98575.43
2018-02-24T13:35:47.909Z,98574.94
2018-02-24T13:38:16.155Z,98584.78
2018-02-24T13:40:45.159Z,98585.30
2018-02-24T13:43:13.407Z,98585.77
2018-02-24T13:45:41.647Z,98591.98
2018-02-24T13:48:09.927Z,98594.17
2018-02-24T13:50:38.139Z,98585.61
2018-02-24T13:53:07.153Z,98596.48
2018-02-24T13:55:35.399Z,98584.81
2018-02-24T13:58:03.640Z,98585.43
2018-02-24T14:00:31.882Z,98590.19
2018-02-24T14:03:00.170Z,98594.95
2018-02-24T14:08:03.777Z,98612.02
2018-02-24T14:10:32.019Z,98614.25
2018-02-24T14:13:01.042Z,98597.05
2018-02-24T14:15:29.286Z,98600.42
2018-02-24T14:17:57.543Z,98586.77
2018-02-24T14:20:25.786Z,98596.59
2018-02-24T14:22:54.041Z,98596.03
2018-02-24T14:25:22.287Z,98618.52
2018-02-24T14:27:50.538Z,98612.03
2018-02-24T14:30:18.779Z,98621.48
2018-02-24T14:32:47.030Z,98605.84
2018-02-24T14:35:16.036Z,98605.80
2018-02-24T14:37:44.286Z,98613.91
2018-02-24T14:40:13.289Z,98602.97
2018-02-24T14:42:42.311Z,98607.63
2018-02-24T14:45:10.583Z,98614.41
2018-02-24T14:47:39.579Z,98613.81
2018-02-24T14:50:07.823Z,98616.84
2018-02-24T14:52:36.845Z,98622.45
2018-02-24T14:55:05.098Z,98614.47
2018-02-24T14:57:34.109Z,98625.85
2018-02-24T15:00:02.358Z,98628.86
2018-02-24T15:02:31.371Z,98626.69
2018-02-24T15:04:59.678Z,98615.56
2018-02-24T15:07:28.637Z,98622.77
2018-02-24T15:09:56.891Z,98616.59
2018-02-24T15:12:25.933Z,98618.78
2018-02-24T15:14:54.178Z,98628.70
2018-02-24T15:17:22.433Z,98634.73
2018-02-24T15:19:51.448Z,98627.24
2018-02-24T15:22:20.467Z,98619.73
2018-02-24T15:24:48.709Z,98631.59
2018-02-24T15:27:16.962Z,98638.00
2018-02-24T15:29:45.213Z,98630.20
2018-02-24T15:32:13.507Z,98645.59
2018-02-24T15:34:41.761Z,98637.03
2018-02-24T15:37:10.010Z,98639.91
2018-02-24T15:39:38.263Z,98649.47
2018-02-24T15:42:07.280Z,98644.73
2018-02-24T15:44:35.528Z,98649.80
2018-02-24T15:47:04.538Z,98651.32
2018-02-24T15:49:32.793Z,98657.90
2018-02-24T15:52:01.801Z,98659.43
2018-02-24T15:54:30.876Z,98668.38
2018-02-24T15:56:59.883Z,98663.45
2018-02-24T15:59:28.902Z,98661.63
2018-02-24T16:01:57.154Z,98667.45
2018-02-24T16:04:25.411Z,98659.06
2018-02-24T16:06:54.421Z,98671.20
2018-02-24T16:09:22.687Z,98671.09
2018-02-24T16:11:51.710Z,98677.66
2018-02-24T16:14:19.968Z,98673.73
2018-02-24T16:16:48.976Z,98677.63
2018-02-24T16:19:17.240Z,98676.98
2018-02-24T16:21:45.499Z,98669.30
2018-02-24T16:24:14.524Z,98682.80
2018-02-24T16:26:42.769Z,98680.16
2018-02-24T16:29:11.799Z,98680.88
2018-02-24T16:31:40.055Z,98688.19
2018-02-24T16:34:08.318Z,98688.98
2018-02-24T16:36:37.321Z,98689.12
2018-02-24T16:39:05.584Z,98694.86
2018-02-24T16:41:34.602Z,98696.58
2018-02-24T16:44:02.880Z,98691.80
2018-02-24T16:46:31.138Z,98702.20
2018-02-24T16:48:59.391Z,98700.53
2018-02-24T16:51:27.651Z,98696.18
2018-02-24T16:53:55.905Z,98701.19
2018-02-24T16:56:24.181Z,98691.66
2018-02-24T16:58:52.426Z,98702.36
2018-02-24T17:01:20.690Z,98709.95
2018-02-24T17:03:49.698Z,98707.47
2018-02-24T17:06:17.954Z,98713.17
2018-02-24T17:08:46.964Z,98717.65
2018-02-24T17:11:15.221Z,98725.70
2018-02-24T17:13:44.240Z,98723.08
2018-02-24T17:16:12.498Z,98718.14
2018-02-24T17:18:40.760Z,98724.16
2018-02-24T17:21:09.848Z,98724.88
2018-02-24T17:23:38.047Z,98739.58
2018-02-24T17:26:06.286Z,98730.55
2018-02-24T17:28:34.539Z,98734.47
2018-02-24T17:31:02.789Z,98739.24
2018-02-24T17:33:31.034Z,98744.53
2018-02-24T17:36:00.044Z,98741.69
2018-02-24T17:38:28.297Z,98737.63
2018-02-24T17:40:57.307Z,98745.48
2018-02-24T17:43:25.567Z,98737.89
2018-02-24T17:45:54.588Z,98744.75
2018-02-24T17:48:22.844Z,98756.13
2018-02-24T17:50:51.850Z,98737.55
2018-02-24T17:53:20.118Z,98751.16
2018-02-24T17:55:48.358Z,98758.44
2018-02-24T17:58:16.598Z,98751.56
2018-02-24T18:00:44.858Z,98760.52
2018-02-24T18:03:13.147Z,98759.54
2018-02-24T18:05:42.136Z,98763.66
2018-02-24T18:08:10.381Z,98765.13
2018-02-24T18:10:39.399Z,98769.91
2018-02-24T18:13:07.643Z,98768.22
2018-02-24T18:15:42.591Z,98766.38
2018-02-24T18:18:10.834Z,98774.58
2018-02-24T18:20:39.089Z,98771.77
2018-02-24T18:23:07.338Z,98769.33
2018-02-24T18:25:35.581Z,98780.97
2018-02-24T18:28:04.603Z,98775.97
2018-02-24T18:30:32.870Z,98771.30
2018-02-24T18:33:01.132Z,98776.01
2018-02-24T18:35:30.130Z,98773.03
2018-02-24T18:37:58.398Z,98776.55
2018-02-24T18:40:27.405Z,98787.61
2018-02-24T18:42:55.665Z,98787.67
2018-02-24T18:45:24.682Z,98779.16
2018-02-24T18:47:52.933Z,98783.49
2018-02-24T18:50:21.948Z,98791.65
2018-02-24T18:52:50.243Z,98794.02
2018-02-24T18:55:19.219Z,98791.71
2018-02-24T18:57:47.475Z,98807.45
2018-02-24T19:00:15.722Z,98797.98
2018-02-24T19:02:43.974Z,98803.16
2018-02-24T19:05:12.219Z,98805.48
2018-02-24T19:07:40.469Z,98803.92
2018-02-24T19:10:09.470Z,98805.11
2018-02-24T19:12:37.728Z,98805.50
2018-02-24T19:15:06.747Z,98808.81
2018-02-24T19:17:35.001Z,98813.92
2018-02-24T19:20:04.014Z,98826.00
2018-02-24T19:22:32.262Z,98823.89
2018-02-24T19:25:01.315Z,98825.89
2018-02-24T19:27:29.534Z,98831.27
2018-02-24T19:29:58.549Z,98827.56
2018-02-24T19:32:26.799Z,98833.43
2018-02-24T19:34:55.819Z,98837.16
2018-02-24T19:37:24.063Z,98834.72
2018-02-24T19:39:52.318Z,98839.41
2018-02-24T19:42:20.562Z,98841.31
2018-02-24T19:44:48.815Z,98830.70
2018-02-24T19:47:17.069Z,98831.48
2018-02-24T19:49:45.315Z,98840.55
2018-02-24T19:52:13.566Z,98843.58
2018-02-24T19:54:41.813Z,98833.39
2018-02-24T19:57:10.063Z,98837.11
2018-02-24T19:59:38.328Z,98833.23
2018-02-24T20:02:06.573Z,98846.76
2018-02-24T20:04:34.810Z,98843.77
2018-02-24T20:07:03.838Z,98847.30
2018-02-24T20:09:32.093Z,98838.87
2018-02-24T20:12:00.349Z,98845.38
2018-02-24T20:14:29.359Z,98843.48
2018-02-24T20:16:57.601Z,98844.02
2018-02-24T20:19:25.853Z,98843.13
2018-02-24T20:21:54.093Z,98855.55
2018-02-24T20:24:22.346Z,98848.63
2018-02-24T20:26:51.369Z,98856.95
2018-02-24T20:29:19.614Z,98865.23
2018-02-24T20:31:48.637Z,98864.57
2018-02-24T20:34:16.882Z,98865.70
2018-02-24T20:36:45.899Z,98862.52
2018-02-24T20:39:14.141Z,98868.40
2018-02-24T20:41:43.163Z,98875.05
2018-02-24T20:44:11.406Z,98881.63
2018-02-24T20:46:40.429Z,98882.17
2018-02-24T20:49:08.666Z,98881.00
2018-02-24T20:51:36.906Z,98880.37
2018-02-24T20:54:05.151Z,98886.45
2018-02-24T20:56:33.398Z,98888.69
2018-02-24T20:59:02.627Z,98890.89
2018-02-24T21:01:30.866Z,98899.27
2018-02-24T21:03:59.118Z,98896.29
2018-02-24T21:06:27.370Z,98896.80
2018-02-24T21:08:55.621Z,98899.84
2018-02-24T21:11:23.865Z,98898.55
2018-02-24T21:13:52.122Z,98899.22
2018-02-24T21:16:20.366Z,98902.42
2018-02-24T21:18:48.618Z,98914.49
2018-02-24T21:21:17.625Z,98904.67
2018-02-24T21:23:45.877Z,98925.30
2018-02-24T21:26:14.900Z,98909.92
2018-02-24T21:28:43.150Z,98904.70
2018-02-24T21:31:12.168Z,98909.84
2018-02-24T21:33:40.431Z,98917.09
2018-02-24T21:36:08.677Z,98920.55
2018-02-24T21:38:36.925Z,98926.41
2018-02-24T21:41:05.178Z,98935.46
2018-02-24T21:43:33.422Z,98939.97
2018-02-24T21:46:02.439Z,98944.56
2018-02-24T21:48:30.682Z,98949.94
2018-02-24T21:50:59.714Z,98958.43
2018-02-24T21:53:27.961Z,98957.88
2018-02-24T21:55:56.985Z,98945.25
2018-02-24T21:58:25.222Z,98941.12
2018-02-24T22:00:54.244Z,98945.21
2018-02-24T22:03:22.485Z,98961.98
2018-02-24T22:05:50.730Z,98958.70
2018-02-24T22:08:18.977Z,98963.27
2018-02-24T22:10:47.234Z,98959.38
2018-02-24T22:13:15.482Z,98963.73
2018-02-24T22:15:43.733Z,98958.86
2018-02-24T22:18:11.977Z,98968.20
2018-02-24T22:20:40.235Z,98962.61
2018-02-24T22:23:08.486Z,98970.20
2018-02-24T22:25:37.493Z,98957.37
2018-02-24T22:28:06.517Z,98961.59
2018-02-24T22:30:34.788Z,98961.46
2018-02-24T22:33:03.033Z,98966.02
2018-02-24T22:35:32.046Z,98966.56
2018-02-24T22:38:00.297Z,98964.69
2018-02-24T22:40:29.307Z,98964.39
2018-02-24T22:42:57.555Z,98961.59
2018-02-24T22:45:25.805Z,98957.61
2018-02-24T22:47:59.707Z,98964.37
2018-02-24T22:50:27.954Z,98967.11
2018-02-24T22:52:56.209Z,98969.52
2018-02-24T22:55:25.222Z,98964.58
2018-02-24T22:57:53.477Z,98960.78
2018-02-24T23:00:21.738Z,98963.97
2018-02-24T23:02:49.992Z,98961.45
2018-02-24T23:05:18.241Z,98968.30
2018-02-24T23:07:46.494Z,98977.11
2018-02-24T23:10:14.748Z,98977.11
2018-02-24T23:12:43.765Z,98983.33
2018-02-24T23:15:12.054Z,98983.96
2018-02-24T23:17:41.030Z,98980.08
2018-02-24T23:20:09.284Z,98978.30
2018-02-24T23:22:38.293Z,98978.78
2018-02-24T23:25:06.553Z,98984.69
2018-02-24T23:27:35.574Z,98983.11
2018-02-24T23:30:03.837Z,98982.52
2018-02-24T23:32:32.077Z,98985.14
2018-02-24T23:35:00.327Z,98979.77
2018-02-24T23:37:28.575Z,98977.39
2018-02-24T23:39:56.823Z,98980.60
2018-02-24T23:42:25.842Z,98979.44
2018-02-24T23:44:54.104Z,98975.89
2018-02-24T23:47:22.351Z,98986.20
2018-02-24T23:49:50.610Z,98986.80
2018-02-24T23:52:18.860Z,98987.66
2018-02-24T23:54:47.106Z,98995.39
2018-02-24T23:57:15.373Z,98992.77
2018-02-24T23:59:44.390Z,98996.12
